createdAt,value
2018-06-28T00:02:24.618Z,57.31
2018-06-28T00:07:09.024Z,59.71
2018-06-28T00:11:53.204Z,57.00
2018-06-28T00:16:37.363Z,61.29
2018-06-28T00:21:22.484Z,58.96
2018-06-28T00:26:06.652Z,51.39
2018-06-28T00:30:50.929Z,52.40
2018-06-28T00:35:35.739Z,54.24
2018-06-28T00:40:20.941Z,55.11
2018-06-28T00:45:06.190Z,55.80
2018-06-28T00:49:50.274Z,53.61
2018-06-28T00:54:36.257Z,53.43
2018-06-28T00:59:20.664Z,58.28
2018-06-28T01:04:07.101Z,61.75
2018-06-28T01:08:51.309Z,61.55
2018-06-28T01:13:36.273Z,62.73
2018-06-28T01:18:20.787Z,60.38
2018-06-28T01:23:08.382Z,62.54
2018-06-28T01:27:52.565Z,61.59
2018-06-28T01:32:37.250Z,63.31
2018-06-28T01:37:22.439Z,61.16
2018-06-28T01:42:17.370Z,62.18
2018-06-28T01:47:01.540Z,60.31
2018-06-28T01:51:49.535Z,59.19
2018-06-28T01:56:33.702Z,61.21
2018-06-28T02:01:17.671Z,63.59
2018-06-28T02:06:02.015Z,60.12
2018-06-28T02:10:46.156Z,61.65
2018-06-28T02:15:30.110Z,62.54
2018-06-28T02:20:18.064Z,65.25
2018-06-28T02:25:01.964Z,64.58
2018-06-28T02:29:46.002Z,66.20
2018-06-28T02:34:30.025Z,61.69
2018-06-28T02:39:14.278Z,61.24
2018-06-28T02:44:03.003Z,65.59
2018-06-28T02:48:47.752Z,62.71
2018-06-28T02:53:31.900Z,60.42
2018-06-28T02:58:16.016Z,61.09
2018-06-28T03:03:00.503Z,69.48
2018-06-28T03:07:44.594Z,66.08
2018-06-28T03:12:29.219Z,61.60
2018-06-28T03:17:14.133Z,59.74
2018-06-28T03:21:58.563Z,60.67
2018-06-28T03:26:42.805Z,66.37
2018-06-28T03:31:30.474Z,59.69
2018-06-28T03:36:14.719Z,57.82
2018-06-28T03:40:59.063Z,61.41
2018-06-28T03:45:43.258Z,63.31
2018-06-28T03:50:31.352Z,58.01
2018-06-28T03:55:15.413Z,56.23
2018-06-28T04:00:01.641Z,57.96
2018-06-28T04:04:45.811Z,62.87
2018-06-28T04:09:30.184Z,60.74
2018-06-28T04:14:15.883Z,57.82
2018-06-28T04:19:00.710Z,63.66
2018-06-28T04:23:46.049Z,58.78
2018-06-28T04:28:30.051Z,59.76
2018-06-28T04:33:14.222Z,59.24
2018-06-28T04:37:58.386Z,61.15
2018-06-28T04:42:42.506Z,59.86
2018-06-28T04:47:26.958Z,59.77
2018-06-28T04:52:14.855Z,57.24
2018-06-28T04:56:59.037Z,59.03
2018-06-28T05:01:43.189Z,58.78
2018-06-28T05:06:27.386Z,57.99
2018-06-28T05:11:11.465Z,57.66
2018-06-28T05:15:55.666Z,57.90
2018-06-28T05:20:40.315Z,57.27
2018-06-28T05:26:54.387Z,57.08
2018-06-28T05:31:38.900Z,57.87
2018-06-28T05:36:23.152Z,60.78
2018-06-28T05:41:07.103Z,56.14
2018-06-28T05:45:50.616Z,55.32
2018-06-28T05:50:37.531Z,55.33
2018-06-28T05:55:21.144Z,54.42
2018-06-28T06:00:05.276Z,55.66
2018-06-28T06:04:48.832Z,53.88
2018-06-28T06:09:33.440Z,53.58
2018-06-28T06:14:17.094Z,54.49
2018-06-28T06:19:00.767Z,54.45
2018-06-28T06:23:44.641Z,52.18
2018-06-28T06:28:28.310Z,54.67
2018-06-28T06:33:12.185Z,53.55
2018-06-28T06:37:55.797Z,53.71
2018-06-28T06:42:39.569Z,57.01
2018-06-28T06:47:23.195Z,54.90
2018-06-28T06:52:07.015Z,51.41
2018-06-28T06:56:50.658Z,51.66
2018-06-28T07:01:34.346Z,52.88
2018-06-28T07:06:18.089Z,55.68
2018-06-28T07:11:05.344Z,52.26
2018-06-28T07:15:48.970Z,53.89
2018-06-28T07:20:35.521Z,55.05
2018-06-28T07:25:19.002Z,55.13
2018-06-28T07:30:04.690Z,54.33
2018-06-28T07:34:48.209Z,53.02
2018-06-28T07:39:35.327Z,51.98
2018-06-28T07:44:18.902Z,56.73
2018-06-28T07:49:03.419Z,55.26
2018-06-28T07:53:46.905Z,54.58
2018-06-28T07:58:30.467Z,55.09
2018-06-28T08:03:14.136Z,51.93
2018-06-28T08:07:57.805Z,51.96
2018-06-28T08:12:44.528Z,52.16
2018-06-28T08:17:28.067Z,51.06
2018-06-28T08:22:12.729Z,48.04
2018-06-28T08:26:56.360Z,49.45
2018-06-28T08:31:43.082Z,50.38
2018-06-28T08:36:26.785Z,50.60
2018-06-28T08:41:10.539Z,49.06
2018-06-28T08:45:54.082Z,48.59
2018-06-28T08:50:41.222Z,50.56
2018-06-28T08:55:24.879Z,50.24
2018-06-28T09:00:09.606Z,49.56
2018-06-28T09:04:53.078Z,49.87
2018-06-28T09:09:37.716Z,49.90
2018-06-28T09:14:21.297Z,49.82
2018-06-28T09:19:06.203Z,50.05
2018-06-28T09:23:49.673Z,49.30
2018-06-28T09:28:33.198Z,50.78
2018-06-28T09:33:18.146Z,49.57
2018-06-28T09:38:01.710Z,50.00
2018-06-28T09:42:45.357Z,48.37
2018-06-28T09:47:28.932Z,51.11
2018-06-28T09:52:13.652Z,50.29
2018-06-28T09:56:57.222Z,47.93
2018-06-28T10:01:40.965Z,47.52
2018-06-28T10:06:24.385Z,47.86
2018-06-28T10:11:09.052Z,48.23
2018-06-28T10:15:52.434Z,47.03
2018-06-28T10:20:37.119Z,48.89
2018-06-28T10:25:20.708Z,46.57
2018-06-28T10:30:08.669Z,47.92
2018-06-28T10:34:53.436Z,45.52
2018-06-28T10:39:38.087Z,44.91
2018-06-28T10:44:22.366Z,44.14
2018-06-28T10:49:06.237Z,44.53
2018-06-28T10:53:50.273Z,44.05
2018-06-28T10:58:33.913Z,43.03
2018-06-28T11:03:17.505Z,42.45
2018-06-28T11:08:01.092Z,42.37
2018-06-28T11:12:44.719Z,44.58
2018-06-28T11:17:28.704Z,43.45
2018-06-28T11:22:12.529Z,43.29
2018-06-28T11:26:56.115Z,42.96
2018-06-28T11:31:39.804Z,43.22
2018-06-28T11:36:23.459Z,43.03
2018-06-28T11:41:06.993Z,43.74
2018-06-28T11:45:50.603Z,43.24
2018-06-28T11:50:37.406Z,42.50
2018-06-28T11:55:21.185Z,40.82
2018-06-28T12:00:07.961Z,40.52
2018-06-28T12:04:51.505Z,42.57
2018-06-28T12:09:40.540Z,43.39
2018-06-28T12:14:24.238Z,42.42
2018-06-28T12:19:08.947Z,43.57
2018-06-28T12:23:52.447Z,43.78
2018-06-28T12:28:36.182Z,43.29
2018-06-28T12:33:19.800Z,42.71
2018-06-28T12:38:03.482Z,42.93
2018-06-28T12:42:52.693Z,42.15
2018-06-28T12:47:54.542Z,42.56
2018-06-28T12:52:52.258Z,44.15
2018-06-28T12:57:35.894Z,42.31
2018-06-28T13:02:20.405Z,41.97
2018-06-28T13:07:03.956Z,41.44
2018-06-28T13:11:51.194Z,41.54
2018-06-28T13:16:34.630Z,43.19
2018-06-28T13:21:21.265Z,41.86
2018-06-28T13:26:04.771Z,42.70
2018-06-28T13:30:51.350Z,42.98
2018-06-28T13:35:34.837Z,45.96
2018-06-28T13:40:19.613Z,45.18
2018-06-28T13:45:02.902Z,44.83
2018-06-28T13:49:50.270Z,45.03
2018-06-28T13:54:33.745Z,44.68
2018-06-28T13:59:20.469Z,45.54
2018-06-28T14:04:04.060Z,45.26
2018-06-28T14:08:48.743Z,46.84
2018-06-28T14:13:32.270Z,45.96
2018-06-28T14:18:16.799Z,44.19
2018-06-28T14:23:00.414Z,45.06
2018-06-28T14:27:44.022Z,44.46
2018-06-28T14:32:27.709Z,43.53
2018-06-28T14:37:11.082Z,45.60
2018-06-28T14:41:55.750Z,47.20
2018-06-28T14:46:40.277Z,47.50
2018-06-28T14:51:27.303Z,45.40
2018-06-28T14:56:10.866Z,45.94
2018-06-28T15:00:54.500Z,45.48
2018-06-28T15:05:38.184Z,46.09
2018-06-28T15:10:25.578Z,44.73
2018-06-28T15:15:09.150Z,47.10
2018-06-28T15:19:56.061Z,45.59
2018-06-28T15:24:39.733Z,46.00
2018-06-28T15:29:24.366Z,46.42
2018-06-28T15:34:07.998Z,46.03
2018-06-28T15:38:52.730Z,47.45
2018-06-28T15:43:36.409Z,46.93
2018-06-28T15:48:23.813Z,47.97
2018-06-28T15:53:07.537Z,46.26
2018-06-28T15:57:51.123Z,45.94
2018-06-28T16:02:34.753Z,47.47
2018-06-28T16:07:18.468Z,48.13
2018-06-28T16:12:03.136Z,47.06
2018-06-28T16:16:46.689Z,46.45
2018-06-28T16:21:31.411Z,47.25
2018-06-28T16:26:15.387Z,48.69
2018-06-28T16:30:58.965Z,48.32
2018-06-28T16:35:42.590Z,49.13
2018-06-28T16:40:27.375Z,51.29
2018-06-28T16:45:10.947Z,52.89
2018-06-28T16:49:58.432Z,48.56
2018-06-28T16:54:42.018Z,46.64
2018-06-28T16:59:27.037Z,47.97
2018-06-28T17:04:10.515Z,48.36
2018-06-28T17:08:55.324Z,49.51
2018-06-28T17:13:38.847Z,48.21
2018-06-28T17:18:22.648Z,48.06
2018-06-28T17:23:06.141Z,49.18
2018-06-28T17:27:49.896Z,51.64
2018-06-28T17:32:33.524Z,52.09
2018-06-28T17:37:17.175Z,50.39
2018-06-28T17:42:03.893Z,54.02
2018-06-28T17:46:47.554Z,51.60
2018-06-28T17:51:32.294Z,48.49
2018-06-28T17:56:15.935Z,47.85
2018-06-28T18:00:59.591Z,47.95
2018-06-28T18:05:43.120Z,47.81
2018-06-28T18:10:27.749Z,47.30
2018-06-28T18:15:12.647Z,48.14
2018-06-28T18:19:57.424Z,46.85
2018-06-28T18:24:40.943Z,48.56
2018-06-28T18:29:28.030Z,50.19
2018-06-28T18:34:11.675Z,53.16
2018-06-28T18:38:59.653Z,56.09
2018-06-28T18:43:43.991Z,51.34
2018-06-28T18:48:31.224Z,50.12
2018-06-28T18:53:14.829Z,55.79
2018-06-28T18:57:59.550Z,62.53
2018-06-28T19:02:44.777Z,50.32
2018-06-28T19:08:14.759Z,52.14
2018-06-28T19:13:00.644Z,54.78
2018-06-28T19:17:45.106Z,51.60
2018-06-28T19:22:34.107Z,49.64
2018-06-28T19:27:18.101Z,49.05
2018-06-28T19:32:07.305Z,48.93
2018-06-28T19:36:50.678Z,50.46
2018-06-28T19:41:43.320Z,49.13
2018-06-28T19:46:26.828Z,59.06
2018-06-28T19:51:19.788Z,55.80
2018-06-28T19:56:03.278Z,52.82
2018-06-28T20:00:52.324Z,50.30
2018-06-28T20:05:36.003Z,49.49
2018-06-28T20:10:23.374Z,48.68
2018-06-28T20:15:12.473Z,49.57
2018-06-28T20:20:05.295Z,50.20
2018-06-28T20:24:49.039Z,47.61
2018-06-28T20:29:38.942Z,47.90
2018-06-28T20:34:22.645Z,47.48
2018-06-28T20:39:09.487Z,54.33
2018-06-28T20:43:54.270Z,49.29
2018-06-28T20:48:38.994Z,52.78
2018-06-28T20:53:22.551Z,50.13
2018-06-28T20:58:07.308Z,47.90
2018-06-28T21:02:51.946Z,48.18
2018-06-28T21:07:38.856Z,48.06
2018-06-28T21:12:22.364Z,47.76
2018-06-28T21:17:05.849Z,47.28
2018-06-28T21:21:49.162Z,48.05
2018-06-28T21:26:32.682Z,48.33
2018-06-28T21:31:16.481Z,46.77
2018-06-28T21:36:00.074Z,46.69
2018-06-28T21:40:43.735Z,45.88
2018-06-28T21:45:27.351Z,46.95
2018-06-28T21:50:11.046Z,47.33
2018-06-28T21:54:54.417Z,54.24
2018-06-28T21:59:41.908Z,51.29
2018-06-28T22:04:25.432Z,49.15
2018-06-28T22:09:09.154Z,47.96
2018-06-28T22:13:52.886Z,48.19
2018-06-28T22:18:36.797Z,55.88
2018-06-28T22:23:20.307Z,49.79
2018-06-28T22:28:03.989Z,52.11
2018-06-28T22:32:47.470Z,47.06
2018-06-28T22:37:31.105Z,46.19
2018-06-28T22:42:14.706Z,54.42
2018-06-28T22:46:58.272Z,51.48
2018-06-28T22:51:41.697Z,45.39
2018-06-28T22:56:25.282Z,46.82
2018-06-28T23:01:08.926Z,47.84
2018-06-28T23:05:52.653Z,47.34
2018-06-28T23:10:39.353Z,47.65
2018-06-28T23:15:22.965Z,47.59
2018-06-28T23:20:09.883Z,48.15
2018-06-28T23:24:53.666Z,48.32
2018-06-28T23:29:40.273Z,55.64
2018-06-28T23:34:23.931Z,58.04
2018-06-28T23:39:10.783Z,57.24
2018-06-28T23:43:54.288Z,49.49
2018-06-28T23:48:38.025Z,55.58
2018-06-28T23:53:21.655Z,47.99
2018-06-28T23:58:05.524Z,48.06
